createdAt,value
2023-03-08T00:02:30.779Z,4.88
2023-03-08T00:07:38.768Z,4.85
2023-03-08T00:12:46.046Z,4.85
2023-03-08T00:17:53.608Z,4.84
2023-03-08T00:23:01.082Z,4.81
2023-03-08T00:28:08.828Z,4.78
2023-03-08T00:33:16.291Z,4.77
2023-03-08T00:38:24.128Z,4.75
2023-03-08T00:43:31.832Z,4.75
2023-03-08T00:48:39.083Z,4.73
2023-03-08T00:53:46.639Z,4.70
2023-03-08T00:58:54.413Z,4.66
2023-03-08T01:04:02.533Z,4.63
2023-03-08T01:09:10.612Z,4.60
2023-03-08T01:14:18.181Z,4.57
2023-03-08T01:19:25.489Z,4.59
2023-03-08T01:28:51.123Z,4.62
2023-03-08T01:33:57.116Z,4.59
2023-03-08T01:39:02.058Z,4.56
2023-03-08T01:44:07.356Z,4.53
2023-03-08T01:49:14.314Z,4.51
2023-03-08T01:54:22.872Z,4.49
2023-03-08T01:59:28.031Z,4.47
2023-03-08T02:04:32.654Z,4.46
2023-03-08T02:09:37.270Z,4.45
2023-03-08T02:14:43.595Z,4.44
2023-03-08T02:19:53.019Z,4.44
2023-03-08T02:24:57.193Z,4.42
2023-03-08T02:30:03.199Z,4.39
2023-03-08T02:35:09.285Z,4.34
2023-03-08T02:40:18.944Z,4.30
2023-03-08T02:45:23.396Z,4.23
2023-03-08T02:50:29.031Z,4.19
2023-03-08T02:55:35.851Z,4.15
2023-03-08T03:00:41.689Z,4.11
2023-03-08T03:05:46.359Z,4.06
2023-03-08T03:10:50.775Z,4.01
2023-03-08T03:15:55.263Z,3.94
2023-03-08T03:21:05.279Z,3.89
2023-03-08T03:26:11.658Z,3.84
2023-03-08T03:31:18.323Z,3.80
2023-03-08T03:36:23.697Z,3.76
2023-03-08T03:41:28.070Z,3.70
2023-03-08T03:46:32.158Z,3.66
2023-03-08T03:51:37.660Z,3.61
2023-03-08T03:56:41.649Z,3.53
2023-03-08T04:01:46.280Z,3.43
2023-03-08T04:06:51.165Z,3.33
2023-03-08T04:11:55.909Z,3.28
2023-03-08T04:17:00.132Z,3.26
2023-03-08T04:22:04.841Z,3.29
2023-03-08T04:27:09.115Z,3.36
2023-03-08T04:32:13.196Z,3.41
2023-03-08T04:37:17.663Z,3.46
2023-03-08T04:42:22.410Z,3.46
2023-03-08T04:47:26.600Z,3.47
2023-03-08T04:52:30.818Z,3.50
2023-03-08T04:57:35.277Z,3.51
2023-03-08T05:02:39.516Z,3.51
2023-03-08T05:07:44.057Z,3.52
2023-03-08T05:12:48.755Z,3.52
2023-03-08T05:17:53.408Z,3.51
2023-03-08T05:22:59.344Z,3.48
2023-03-08T05:28:04.247Z,3.44
2023-03-08T05:33:08.356Z,3.42
2023-03-08T05:48:18.156Z,3.40
2023-03-08T05:53:26.133Z,3.44
2023-03-08T05:58:34.225Z,3.51
2023-03-08T06:03:42.211Z,3.56
2023-03-08T06:08:50.988Z,3.59
2023-03-08T06:13:58.672Z,3.63
2023-03-08T06:19:06.856Z,3.70
2023-03-08T06:24:14.392Z,3.76
2023-03-08T06:29:22.429Z,3.82
2023-03-08T06:34:30.120Z,3.89
2023-03-08T06:39:37.580Z,3.96
2023-03-08T06:44:44.966Z,3.99
2023-03-08T06:49:54.036Z,4.00
2023-03-08T06:55:01.647Z,4.03
2023-03-08T07:00:12.611Z,4.11
2023-03-08T07:05:20.831Z,4.34
2023-03-08T07:10:28.546Z,4.49
2023-03-08T07:15:36.094Z,4.53
2023-03-08T07:20:44.194Z,4.62
2023-03-08T07:25:52.276Z,4.72
2023-03-08T07:30:59.712Z,4.80
2023-03-08T07:36:08.526Z,4.83
2023-03-08T07:41:16.019Z,4.82
2023-03-08T07:46:23.648Z,4.82
2023-03-08T07:51:31.491Z,4.96
2023-03-08T07:56:38.945Z,5.09
2023-03-08T08:01:46.348Z,5.18
2023-03-08T08:08:08.686Z,5.30
2023-03-08T08:13:17.973Z,5.55
2023-03-08T08:18:25.588Z,5.55
2023-03-08T08:23:34.255Z,5.43
2023-03-08T08:28:43.406Z,5.37
2023-03-08T08:33:50.887Z,5.34
2023-03-08T08:38:58.293Z,5.36
2023-03-08T08:44:05.699Z,5.49
2023-03-08T08:49:12.994Z,5.61
2023-03-08T08:54:20.586Z,5.72
2023-03-08T08:59:27.674Z,5.86
2023-03-08T09:04:34.900Z,6.00
2023-03-08T09:15:01.805Z,6.19
2023-03-08T09:20:09.347Z,6.30
2023-03-08T09:25:13.909Z,6.41
2023-03-08T09:30:19.214Z,6.57
2023-03-08T09:35:23.743Z,6.81
2023-03-08T09:40:29.955Z,7.05
2023-03-08T09:45:34.738Z,7.19
2023-03-08T09:50:46.243Z,7.30
2023-03-08T09:55:55.783Z,7.47
2023-03-08T10:01:06.427Z,7.52
2023-03-08T10:06:19.619Z,7.44
2023-03-08T10:11:32.139Z,7.34
2023-03-08T10:16:40.037Z,7.16
2023-03-08T10:21:46.002Z,7.14
2023-03-08T10:26:51.288Z,7.05
2023-03-08T10:31:55.838Z,7.05
2023-03-08T10:37:02.139Z,7.15
2023-03-08T10:42:15.622Z,7.33
2023-03-08T10:47:22.780Z,7.41
2023-03-08T10:52:29.034Z,7.37
2023-03-08T10:57:34.317Z,7.24
2023-03-08T11:02:38.450Z,7.25
2023-03-08T11:07:51.814Z,7.33
2023-03-08T11:18:52.095Z,7.51
2023-03-08T11:24:09.723Z,7.70
2023-03-08T11:29:30.818Z,7.89
2023-03-08T11:34:55.152Z,7.95
2023-03-08T11:40:15.066Z,7.97
2023-03-08T11:45:29.684Z,7.94
2023-03-08T11:50:41.708Z,7.87
2023-03-08T11:56:15.437Z,7.78
2023-03-08T12:01:26.993Z,7.75
2023-03-08T12:06:40.303Z,7.72
2023-03-08T12:11:51.423Z,7.73
2023-03-08T12:17:08.162Z,7.80
2023-03-08T12:22:40.207Z,7.76
2023-03-08T12:27:52.746Z,7.73
2023-03-08T12:33:04.092Z,7.76
2023-03-08T12:38:32.043Z,7.83
2023-03-08T12:43:42.528Z,7.90
2023-03-08T12:48:53.989Z,8.02
2023-03-08T12:54:04.468Z,8.15
2023-03-08T12:59:39.148Z,8.33
2023-03-08T13:04:47.664Z,8.54
2023-03-08T13:10:01.173Z,8.66
2023-03-08T13:15:29.066Z,8.75
2023-03-08T13:20:57.973Z,8.83
2023-03-08T13:26:26.886Z,8.90
2023-03-08T13:31:35.319Z,8.94
2023-03-08T13:36:49.942Z,8.91
2023-03-08T13:42:13.500Z,8.88
2023-03-08T13:47:27.044Z,8.86
2023-03-08T13:52:39.504Z,8.82
2023-03-08T13:57:54.330Z,8.77
2023-03-08T14:03:03.995Z,8.78
2023-03-08T14:08:22.556Z,8.79
2023-03-08T14:13:32.679Z,8.81
2023-03-08T14:18:42.015Z,8.79
2023-03-08T14:23:54.630Z,8.75
2023-03-08T14:29:22.892Z,8.68
2023-03-08T14:34:34.208Z,8.61
2023-03-08T14:39:43.493Z,8.55
2023-03-08T14:44:58.100Z,8.55
2023-03-08T14:50:19.631Z,8.51
2023-03-08T14:55:29.143Z,8.45
2023-03-08T15:00:37.193Z,8.39
2023-03-08T15:05:46.004Z,8.29
2023-03-08T15:10:54.162Z,8.23
2023-03-08T15:16:02.367Z,8.16
2023-03-08T15:21:11.875Z,8.10
2023-03-08T15:26:23.641Z,8.07
2023-03-08T15:31:31.855Z,8.05
2023-03-08T15:36:39.715Z,8.00
2023-03-08T15:41:47.401Z,7.78
2023-03-08T15:46:55.292Z,7.45
2023-03-08T15:52:03.289Z,7.27
2023-03-08T15:57:10.913Z,7.18
2023-03-08T16:02:20.738Z,7.12
2023-03-08T16:07:28.448Z,6.99
2023-03-08T16:12:36.480Z,6.90
2023-03-08T16:17:44.597Z,6.85
2023-03-08T16:22:52.089Z,6.73
2023-03-08T16:27:59.362Z,6.58
2023-03-08T16:33:07.996Z,6.49
2023-03-08T16:38:15.346Z,6.37
2023-03-08T16:43:23.250Z,6.27
2023-03-08T16:48:31.684Z,6.17
2023-03-08T16:53:39.110Z,6.09
2023-03-08T16:58:46.393Z,6.01
2023-03-08T17:03:54.201Z,5.88
2023-03-08T17:09:01.707Z,5.78
2023-03-08T17:14:12.005Z,5.67
2023-03-08T17:19:21.743Z,5.55
2023-03-08T17:24:31.312Z,5.50
2023-03-08T17:29:38.698Z,5.46
2023-03-08T17:34:46.660Z,5.45
2023-03-08T17:39:54.399Z,5.45
2023-03-08T17:45:02.945Z,5.43
2023-03-08T17:50:14.383Z,5.43
2023-03-08T17:55:22.331Z,5.46
2023-03-08T18:00:30.073Z,5.52
2023-03-08T18:05:37.643Z,5.55
2023-03-08T18:10:45.249Z,5.55
2023-03-08T18:15:55.308Z,5.52
2023-03-08T18:21:13.193Z,5.50
2023-03-08T18:26:22.010Z,5.51
2023-03-08T18:31:31.197Z,5.53
2023-03-08T18:36:39.575Z,5.51
2023-03-08T18:41:47.278Z,5.45
2023-03-08T18:46:55.458Z,5.44
2023-03-08T18:52:03.164Z,5.42
2023-03-08T18:57:10.807Z,5.42
2023-03-08T19:02:18.772Z,5.41
2023-03-08T19:07:26.692Z,5.37
2023-03-08T19:12:37.774Z,5.35
2023-03-08T19:17:45.744Z,5.34
2023-03-08T19:22:52.958Z,5.30
2023-03-08T19:27:58.592Z,5.29
2023-03-08T19:33:06.724Z,5.27
2023-03-08T19:38:14.054Z,5.23
2023-03-08T19:43:21.347Z,5.12
2023-03-08T19:48:28.566Z,5.10
2023-03-08T19:53:36.092Z,5.10
2023-03-08T19:58:43.686Z,5.12
2023-03-08T20:03:51.491Z,5.09
2023-03-08T20:08:59.304Z,5.07
2023-03-08T20:14:08.617Z,5.08
2023-03-08T20:19:18.165Z,5.10
2023-03-08T20:24:25.851Z,5.11
2023-03-08T20:29:33.597Z,5.12
2023-03-08T20:34:41.210Z,5.11
2023-03-08T20:39:51.516Z,5.11
2023-03-08T20:44:58.849Z,5.12
2023-03-08T20:50:06.662Z,5.12
2023-03-08T20:55:14.277Z,5.13
2023-03-08T21:00:25.385Z,5.11
2023-03-08T21:05:36.173Z,5.09
2023-03-08T21:10:43.892Z,5.07
2023-03-08T21:15:52.505Z,5.03
2023-03-08T21:21:00.380Z,5.05
2023-03-08T21:26:08.588Z,5.04
2023-03-08T21:31:17.646Z,5.04
2023-03-08T21:36:26.172Z,5.03
2023-03-08T21:41:35.541Z,4.93
2023-03-08T21:46:44.005Z,4.84
2023-03-08T21:51:52.724Z,4.83
2023-03-08T21:57:00.564Z,4.78
2023-03-08T22:02:10.544Z,4.80
2023-03-08T22:07:17.862Z,4.84
2023-03-08T22:12:25.568Z,4.89
2023-03-08T22:17:33.281Z,4.87
2023-03-08T22:22:42.106Z,4.79
2023-03-08T22:27:49.549Z,4.74
2023-03-08T22:32:58.038Z,4.69
2023-03-08T22:38:05.142Z,4.67
2023-03-08T22:43:12.821Z,4.64
2023-03-08T22:48:20.164Z,4.60
2023-03-08T22:53:27.810Z,4.58
2023-03-08T22:58:34.986Z,4.61
2023-03-08T23:03:42.825Z,4.67
2023-03-08T23:08:51.078Z,4.73
2023-03-08T23:13:58.849Z,4.74
2023-03-08T23:19:06.622Z,4.74
2023-03-08T23:24:15.964Z,4.76
2023-03-08T23:29:24.656Z,4.80
2023-03-08T23:34:32.449Z,4.89
2023-03-08T23:39:41.331Z,4.97
2023-03-08T23:44:48.691Z,5.04
2023-03-08T23:49:56.272Z,5.02
2023-03-08T23:55:03.573Z,5.01
